Farmer, OH

8:55 AM EDT on October 25, 2014 (GMT -0400)
Auburn | Change Station
CLOSE
Current Station
Airport
Location: Auburn,
Elevation: 879 ft
Nearby Weather Stations

Elev 879 ft 41.31 °N, 85.06 °W | Updated 20 minutes ago

Overcast
Overcast
54 °F
Feels Like 54 °F
N
6
Wind Variable Wind from SW

Today
High -- | Low -- °F
--% Chance of Precip.
Yesterday
High -- | Low -- °F
Precip. -- in
8:01 AM 6:42 PM
Waxing Crescent, 3% visible
Pressure 29.91 in
Visibility 5.0 miles
Clouds Scattered Clouds 1300 ft
Dew Point 50 °F
Humidity 88%
Rainfall 0.00 in
Snow Depth Not available.
UV 0 out of 12
Pollen 1.50 out of 12
Air Quality Not available.
Flu Activity Sporadic
METAR KGWB 251235Z AUTO 23005KT 5SM BR SCT013 12/10 A2991 RMK AO2

More Conditions Fewer Conditions

Pressure 29.91 in
Visibility 5.0 miles
Clouds Scattered Clouds 1300 ft
Dew Point 50 °F
Humidity 88%
Rainfall 0.00 in
Snow Depth Not available.
UV 0 out of 12
Pollen 1.50 out of 12
Air Quality Not available.
Flu Activity Sporadic
METAR KGWB 251235Z AUTO 23005KT 5SM BR SCT013 12/10 A2991 RMK AO2

More Conditions Fewer Conditions

10-Day Weather Forecast

Almanac

Astronomy

Oct. 25, 2014 Rise Set
Actual Time 8:01 AM EDT 6:42 PM EDT
Civil Twilight 7:33 AM EDT 7:11 PM EDT
Nautical Twilight 7:01 AM EDT 7:43 PM EDT
Astronomical Twilight 6:28 AM EDT 8:15 PM EDT
Moon 9:40 AM EDT 8:04 PM EDT
Length of Visible Light 11h 37m
Length of Day
10h 41m
Tomorrow will be 2m 34s shorter.
Waxing Crescent, 3% of the Moon is Illuminated
Today
Waxing Crescent
Oct 30
First Quarter
Nov 6
Full
Nov 14
Last Quarter
Nov 22
New

Today's Extremes

State Highs State Lows

Community

WunderPhotos

Upload Photos

1,764,821 photos uploaded!

Nearby

Snow Depth

Station Depth Elevation
No new snow has been reported.

Earthquake Activity

City Distance Mag. Time & Date
No recent earthquake activity has been reported nearby.
Minimum magnitude displayed is 2.5.

Coastal Water Temperatures

Place Temperature
No Stations Reporting

Nearby Weather Stations